In Rescue
 
Wind Gusting 14 knots
07
October 25, 2021 3:37 PM EDT
Weather Information
Wind Direction
  250 °
Wind Speed
  07 kt (8 mph)
Wind Gust
  14 kt (16 mph)
Altimeter
29.77 in
Visibility
10 SM
Temperature
11° C
52° F
Dewpoint
10° C
50° F
Humidity
94%
1hr Rain Fall
00.00 in.
24hr Rain Fall
00.75 in.
Sky Condition
Overcast @ 2,600 ft
Broken @ 1,600 ft
MVFR

METAR KIMS 251937Z AUTO 25007G14KT 10SM BKN016 OVC026 11/10 A2977 RMK AO2

FAA Disclaimer: The data displayed is for advisory purposes only and is not to be used for flight planning or operations.